Weather History for Wahoo, NE

Change the Weather History Date:

Friday, April 19, 2013

  Actual Average Record
Temperature  
Mean Temperature 38 °F -  
Max Temperature 46 °F 65 °F 86 °F (1985)
Min Temperature 29 °F 41 °F 26 °F (1988)
Degree Days  
Heating Degree Days 28    
Growing Degree Days 0 (Base 50)    
Moisture  
Dew Point 24 °F    
Average Humidity 61    
Maximum Humidity 79    
Minimum Humidity 39    
Precipitation  
Precipitation 0.00 in - - ()
Sea Level Pressure  
Sea Level Pressure 29.97 in    
Wind  
Wind Speed 17 mph (NW)    
Max Wind Speed 24 mph    
Max Gust Speed 34 mph    
Visibility 10 miles    
Events      
Averages and records for this station are not official NWS values.
T = Trace of Precipitation, MM = Missing Value Source: NWS Daily Summary

Daily Weather History Graph

Daily Weather History Graph

Search for Another Location

Airport:

Trip Planner

Search our weather history database for the weather conditions in past years. The results will help you decide how hot, cold, wet, or windy it might be!

Date:

Astronomy

Apr. 19, 2013 Rise Set
Actual Time 6:40 AM CDT 8:11 PM CDT
Civil Twilight 6:11 AM CDT 8:40 PM CDT
Nautical Twilight 5:36 AM CDT 9:15 PM CDT
Astronomical Twilight 4:59 AM CDT 9:52 PM CDT
Moon 1:53 PM CDT 3:00 AM CDT
Length of Visible Light 14h 28m
Length of Day
13h 30m
First Quarter, 62% of the Moon is Illuminated
Apr 19
First Quarter
Apr 25
Full
May 2
Last Quarter
May 9
New
May 17
First Quarter

Hourly Weather History & Observations

Time (CDT) Temp. Windchill Dew Point Humidity Pressure Visibility Wind Dir Wind Speed Gust Speed Precip Events Conditions
12:15 AM 32.9 °F 21.0 °F 27.1 °F 79% 29.90 in 10.0 mi WNW 20.7 mph 27.6 mph N/A   Overcast
12:35 AM 32.7 °F 20.7 °F 27.0 °F 79% 29.90 in 10.0 mi WNW 20.7 mph 25.3 mph N/A   Mostly Cloudy
12:55 AM 32.4 °F 21.7 °F 26.6 °F 79% 29.90 in 10.0 mi WNW 16.1 mph 23.0 mph N/A   Scattered Clouds
1:15 AM 32.0 °F 21.6 °F 26.2 °F 79% 29.90 in 10.0 mi WNW 15.0 mph 20.7 mph N/A   Clear
1:35 AM 32.0 °F 21.6 °F 25.3 °F 76% 29.90 in 10.0 mi WNW 15.0 mph 24.2 mph N/A   Clear
1:55 AM 32.0 °F 21.6 °F 24.8 °F 75% 29.89 in 10.0 mi NW 15.0 mph 24.2 mph N/A   Clear
2:15 AM 32.0 °F 21.2 °F 24.1 °F 73% 29.89 in 10.0 mi NW 16.1 mph 24.2 mph N/A   Clear
2:35 AM 32.0 °F 20.5 °F 23.9 °F 72% 29.89 in 10.0 mi WNW 18.4 mph 24.2 mph N/A   Clear
2:55 AM 31.6 °F 20.7 °F 24.3 °F 74% 29.89 in 10.0 mi WNW 16.1 mph 20.7 mph N/A   Clear
3:15 AM 31.5 °F 20.1 °F 24.1 °F 74% 29.88 in 10.0 mi WNW 17.3 mph 21.9 mph N/A   Clear
3:35 AM 31.1 °F 19.7 °F 23.7 °F 74% 29.88 in 10.0 mi WNW 17.3 mph - N/A   Clear
3:55 AM 31.1 °F 20.1 °F 23.5 °F 74% 29.88 in 10.0 mi WNW 16.1 mph 25.3 mph N/A   Clear
4:15 AM 30.9 °F 19.1 °F 23.4 °F 74% 29.88 in 10.0 mi WNW 18.4 mph 25.3 mph N/A   Clear
4:35 AM 30.7 °F 19.2 °F 23.4 °F 74% 29.88 in 10.0 mi WNW 17.3 mph 27.6 mph N/A   Clear
4:55 AM 30.6 °F 19.8 °F 23.0 °F 74% 29.89 in 10.0 mi WNW 15.0 mph - N/A   Clear
5:15 AM 30.2 °F 19.8 °F 22.8 °F 74% 29.89 in 10.0 mi WNW 13.8 mph - N/A   Clear
5:55 AM 29.8 °F 18.9 °F 22.1 °F 73% 29.89 in 10.0 mi WNW 15.0 mph 20.7 mph N/A   Clear
6:15 AM 29.8 °F 18.9 °F 21.9 °F 72% 29.90 in 10.0 mi WNW 15.0 mph 23.0 mph N/A   Clear
6:35 AM 29.7 °F 18.2 °F 21.9 °F 73% 29.90 in 10.0 mi WNW 16.1 mph 23.0 mph N/A   Clear
6:55 AM 29.8 °F 18.4 °F 21.6 °F 71% 29.91 in 10.0 mi WNW 16.1 mph 21.9 mph N/A   Clear
7:15 AM 30.2 °F 18.9 °F 22.1 °F 72% 29.92 in 10.0 mi WNW 16.1 mph - N/A   Clear
7:35 AM 30.7 °F 19.6 °F 22.5 °F 71% 29.92 in 10.0 mi WNW 16.1 mph 23.0 mph N/A   Clear
7:55 AM 31.5 °F 20.1 °F 22.6 °F 70% 29.92 in 10.0 mi WNW 17.3 mph 23.0 mph N/A   Clear
8:15 AM 32.0 °F 20.8 °F 23.4 °F 70% 29.93 in 10.0 mi WNW 17.3 mph 23.0 mph N/A   Clear
8:35 AM 32.0 °F 20.1 °F 23.5 °F 71% 29.93 in 10.0 mi WNW 19.6 mph 25.3 mph N/A   Scattered Clouds
8:55 AM 32.2 °F 20.4 °F 23.4 °F 70% 29.93 in 10.0 mi WNW 19.6 mph 25.3 mph N/A   Scattered Clouds
9:15 AM 33.8 °F 22.8 °F 23.5 °F 66% 29.93 in 10.0 mi NW 18.4 mph - N/A   Mostly Cloudy
9:55 AM 34.3 °F 23.5 °F 23.7 °F 65% 29.93 in 10.0 mi NW 18.4 mph 21.9 mph N/A   Scattered Clouds
10:15 AM 35.1 °F 25.9 °F 24.6 °F 66% 29.94 in 10.0 mi WNW 13.8 mph 20.7 mph N/A   Scattered Clouds
10:35 AM 36.1 °F 25.9 °F 23.2 °F 59% 29.94 in 10.0 mi NW 18.4 mph 24.2 mph N/A   Scattered Clouds
10:55 AM 36.3 °F 26.4 °F 23.0 °F 59% 29.95 in 10.0 mi NW 17.3 mph 24.2 mph N/A   Mostly Cloudy
11:15 AM 37.9 °F 27.6 °F 23.9 °F 57% 29.95 in 10.0 mi WNW 20.7 mph 26.5 mph N/A   Clear
11:35 AM 39.4 °F 30.1 °F 23.2 °F 52% 29.95 in 10.0 mi NW 18.4 mph 25.3 mph N/A   Clear
11:55 AM 40.5 °F 31.2 °F 23.9 °F 52% 29.96 in 10.0 mi NW 19.6 mph 25.3 mph N/A   Clear
12:15 PM 41.4 °F 32.7 °F 22.8 °F 48% 29.96 in 10.0 mi NNW 18.4 mph 26.5 mph N/A   Clear
12:35 PM 42.3 °F 33.1 °F 24.8 °F 50% 29.97 in 10.0 mi WNW 21.9 mph 25.3 mph N/A   Clear
12:55 PM 43.2 °F 34.5 °F 23.4 °F 46% 29.97 in 10.0 mi NW 20.7 mph 28.8 mph N/A   Clear
1:15 PM 43.5 °F 35.0 °F 23.9 °F 46% 29.97 in 10.0 mi WNW 20.7 mph 28.8 mph N/A   Clear
1:35 PM 43.5 °F 34.7 °F 21.0 °F 41% 29.97 in 10.0 mi NW 21.9 mph 29.9 mph N/A   Clear
1:55 PM 44.1 °F 35.0 °F 21.4 °F 41% 29.97 in 10.0 mi NW 24.2 mph 28.8 mph N/A   Clear
2:15 PM 44.6 °F 37.2 °F 22.8 °F 42% 29.98 in 10.0 mi NNW 17.3 mph 28.8 mph N/A   Clear
2:35 PM 45.1 °F 36.9 °F 23.2 °F 42% 29.98 in 10.0 mi NW 21.9 mph 34.5 mph N/A   Clear
2:55 PM 45.3 °F 37.6 °F 23.5 °F 42% 29.98 in 10.0 mi NNW 19.6 mph 29.9 mph N/A   Clear
3:15 PM 45.7 °F 37.6 °F 23.7 °F 42% 29.99 in 10.0 mi WNW 21.9 mph 26.5 mph N/A   Scattered Clouds
3:35 PM 45.9 °F 38.5 °F 23.2 °F 41% 29.99 in 10.0 mi NW 18.4 mph 26.5 mph N/A   Scattered Clouds
3:55 PM 46.6 °F - 25.3 °F 43% 29.99 in 10.0 mi NW 17.3 mph 26.5 mph N/A   Mostly Cloudy
4:15 PM 46.2 °F 39.5 °F 22.5 °F 39% 29.99 in 10.0 mi NW 16.1 mph 28.8 mph N/A   Scattered Clouds
4:35 PM 45.1 °F 37.1 °F 23.4 °F 42% 29.99 in 10.0 mi NW 20.7 mph 25.3 mph N/A   Scattered Clouds
4:55 PM 45.1 °F 38.4 °F 23.5 °F 43% 30.00 in 10.0 mi NW 15.0 mph 24.2 mph N/A   Mostly Cloudy
5:15 PM 45.7 °F 38.0 °F 22.8 °F 41% 30.00 in 10.0 mi NNW 19.6 mph 24.2 mph N/A   Scattered Clouds
5:35 PM 46.6 °F - 23.9 °F 41% 30.00 in 10.0 mi NW 13.8 mph 21.9 mph N/A   Scattered Clouds
5:55 PM 45.9 °F 38.8 °F 22.8 °F 40% 30.01 in 10.0 mi NW 17.3 mph 26.5 mph N/A   Clear
6:15 PM 45.7 °F 39.5 °F 22.8 °F 41% 30.01 in 10.0 mi NW 13.8 mph 19.6 mph N/A   Scattered Clouds
6:35 PM 43.9 °F 36.5 °F 22.5 °F 43% 30.02 in 10.0 mi NNW 16.1 mph 21.9 mph N/A   Scattered Clouds
6:55 PM 44.4 °F 37.5 °F 22.5 °F 42% 30.02 in 10.0 mi NW 15.0 mph 20.7 mph N/A   Scattered Clouds
7:15 PM 42.3 °F 34.8 °F 24.3 °F 49% 30.03 in 10.0 mi NNW 15.0 mph - N/A   Scattered Clouds
7:35 PM 42.1 °F 36.1 °F 25.3 °F 52% 30.04 in 10.0 mi NNW 10.4 mph - N/A   Scattered Clouds
7:55 PM 40.5 °F 34.6 °F 25.5 °F 55% 30.04 in 10.0 mi NNW 9.2 mph - N/A   Scattered Clouds
8:15 PM 38.8 °F 33.8 °F 25.3 °F 58% 30.05 in 10.0 mi NNW 6.9 mph - N/A   Clear
8:35 PM 36.7 °F 32.9 °F 24.6 °F 62% 30.06 in 10.0 mi NW 4.6 mph - N/A   Clear
8:55 PM 35.8 °F 30.9 °F 25.0 °F 65% 30.07 in 10.0 mi NW 5.8 mph - N/A   Clear
9:15 PM 34.7 °F 29.6 °F 25.3 °F 69% 30.08 in 10.0 mi NW 5.8 mph - N/A   Clear
9:35 PM 35.1 °F 30.1 °F 25.2 °F 67% 30.08 in 10.0 mi NW 5.8 mph - N/A   Clear
9:55 PM 33.4 °F 29.1 °F 24.6 °F 70% 30.09 in 10.0 mi NNW 4.6 mph - N/A   Clear
10:15 PM 32.5 °F 27.1 °F 25.0 °F 74% 30.09 in 10.0 mi NNW 5.8 mph - N/A   Clear
10:35 PM 32.5 °F 27.1 °F 25.5 °F 75% 30.10 in 10.0 mi NNW 5.8 mph - N/A   Clear
10:55 PM 32.0 °F 26.4 °F 24.8 °F 75% 30.10 in 10.0 mi NNW 5.8 mph - N/A   Clear
11:15 PM 32.0 °F 26.4 °F 24.6 °F 74% 30.10 in 10.0 mi NNW 5.8 mph - N/A   Clear
11:35 PM 32.2 °F 26.7 °F 24.8 °F 74% 30.10 in 10.0 mi NNW 5.8 mph - N/A   Clear
11:55 PM 31.8 °F 28.5 °F 24.8 °F 75% 30.10 in 10.0 mi NW 3.5 mph - N/A   Clear